Signal Mountain, Tennessee
Current Conditions -  °F | °C
As of 1:53 PM on Friday 31 Oct 2014 (Local Time) from KCHA Reporting Station
Overcast Overcast  
Wind Chill: 57°   Ceiling: 4600
Heat Index: 57°   Visibility: 10mi
Dew Point: 40°   Wind: 8mph
Humidity: 53%   Direction: 340°NNW
Pressure: 29.94"   Gusts: NA
Location:  35.12°N, 85.34°W
Report Text: KCHA 311753Z 34007KT 10SM BKN046 OVC060 14/04 A2994 RMK AO2 SLP138 T01390044 10150 20094 58016
Loading
Personal Weather Stations






























Interactive Weather Map
Tropical Storm Tracking
New forecast layout! Learn more

10-Day Weather Forecast

Advertisements
Track Severe Weather on mobile